sensor_id;sensor_type;location;lat;lon;timestamp;temperature;humidity
47658;DHT22;33958;48.404;10.598;2022-08-21T00:01:39;15.20;99.90
47658;DHT22;33958;48.404;10.598;2022-08-21T00:04:08;15.20;99.90
47658;DHT22;33958;48.404;10.598;2022-08-21T00:06:37;15.40;99.90
47658;DHT22;33958;48.404;10.598;2022-08-21T00:09:07;15.40;99.90
47658;DHT22;33958;48.404;10.598;2022-08-21T00:11:35;15.30;99.90
47658;DHT22;33958;48.404;10.598;2022-08-21T00:14:04;15.30;99.90
47658;DHT22;33958;48.404;10.598;2022-08-21T00:16:32;15.30;99.90
47658;DHT22;33958;48.404;10.598;2022-08-21T00:18:59;15.10;99.90
47658;DHT22;33958;48.404;10.598;2022-08-21T00:21:26;15.20;99.90
47658;DHT22;33958;48.404;10.598;2022-08-21T00:23:52;15.20;99.90
47658;DHT22;33958;48.404;10.598;2022-08-21T00:26:19;15.30;99.90
47658;DHT22;33958;48.404;10.598;2022-08-21T00:28:46;15.40;99.90
47658;DHT22;33958;48.404;10.598;2022-08-21T00:31:16;15.40;99.90
47658;DHT22;33958;48.404;10.598;2022-08-21T00:33:44;15.50;99.90
47658;DHT22;33958;48.404;10.598;2022-08-21T00:36:13;15.40;99.90
47658;DHT22;33958;48.404;10.598;2022-08-21T00:38:40;15.30;99.90
47658;DHT22;33958;48.404;10.598;2022-08-21T00:41:09;15.30;99.90
47658;DHT22;33958;48.404;10.598;2022-08-21T00:43:56;15.40;99.90
47658;DHT22;33958;48.404;10.598;2022-08-21T00:46:23;15.60;99.90
47658;DHT22;33958;48.404;10.598;2022-08-21T00:48:54;15.60;99.90
47658;DHT22;33958;48.404;10.598;2022-08-21T00:51:42;15.40;99.90
47658;DHT22;33958;48.404;10.598;2022-08-21T00:54:10;15.40;99.90
47658;DHT22;33958;48.404;10.598;2022-08-21T00:56:50;15.30;99.90
47658;DHT22;33958;48.404;10.598;2022-08-21T00:59:19;15.40;99.90
47658;DHT22;33958;48.404;10.598;2022-08-21T01:01:48;15.20;99.90
47658;DHT22;33958;48.404;10.598;2022-08-21T01:04:16;15.20;99.90
47658;DHT22;33958;48.404;10.598;2022-08-21T01:06:43;15.10;99.90
47658;DHT22;33958;48.404;10.598;2022-08-21T01:09:11;15.20;99.90
47658;DHT22;33958;48.404;10.598;2022-08-21T01:11:39;15.10;99.90
47658;DHT22;33958;48.404;10.598;2022-08-21T01:14:06;14.90;99.90
47658;DHT22;33958;48.404;10.598;2022-08-21T01:16:33;15.00;99.90
47658;DHT22;33958;48.404;10.598;2022-08-21T01:19:00;14.90;99.90
47658;DHT22;33958;48.404;10.598;2022-08-21T01:21:27;15.10;99.90
47658;DHT22;33958;48.404;10.598;2022-08-21T01:23:56;15.10;99.90
47658;DHT22;33958;48.404;10.598;2022-08-21T01:26:31;15.20;99.90
47658;DHT22;33958;48.404;10.598;2022-08-21T01:29:28;15.10;99.90
47658;DHT22;33958;48.404;10.598;2022-08-21T01:31:59;15.00;99.90
47658;DHT22;33958;48.404;10.598;2022-08-21T01:34:26;14.80;99.90
47658;DHT22;33958;48.404;10.598;2022-08-21T01:36:53;14.80;99.90
47658;DHT22;33958;48.404;10.598;2022-08-21T01:39:20;14.70;99.90
47658;DHT22;33958;48.404;10.598;2022-08-21T01:41:47;14.70;99.90
47658;DHT22;33958;48.404;10.598;2022-08-21T01:44:14;14.50;99.90
47658;DHT22;33958;48.404;10.598;2022-08-21T01:46:40;14.50;99.90
47658;DHT22;33958;48.404;10.598;2022-08-21T01:49:07;14.50;99.90
47658;DHT22;33958;48.404;10.598;2022-08-21T01:51:35;14.40;99.90
47658;DHT22;33958;48.404;10.598;2022-08-21T01:54:02;14.40;99.90
47658;DHT22;33958;48.404;10.598;2022-08-21T01:56:31;14.50;99.90
47658;DHT22;33958;48.404;10.598;2022-08-21T01:59:02;14.50;99.90
47658;DHT22;33958;48.404;10.598;2022-08-21T02:01:29;14.60;99.90
47658;DHT22;33958;48.404;10.598;2022-08-21T02:03:55;14.50;99.90
47658;DHT22;33958;48.404;10.598;2022-08-21T02:06:22;14.60;99.90
47658;DHT22;33958;48.404;10.598;2022-08-21T02:08:49;14.60;99.90
47658;DHT22;33958;48.404;10.598;2022-08-21T02:11:17;14.40;99.90
47658;DHT22;33958;48.404;10.598;2022-08-21T02:13:44;14.40;99.90
47658;DHT22;33958;48.404;10.598;2022-08-21T02:16:12;14.40;99.90
47658;DHT22;33958;48.404;10.598;2022-08-21T02:18:45;14.30;99.90
47658;DHT22;33958;48.404;10.598;2022-08-21T02:21:12;14.10;99.90
47658;DHT22;33958;48.404;10.598;2022-08-21T02:23:39;14.10;99.90
47658;DHT22;33958;48.404;10.598;2022-08-21T02:26:07;14.10;99.90
47658;DHT22;33958;48.404;10.598;2022-08-21T02:28:35;14.10;99.90
47658;DHT22;33958;48.404;10.598;2022-08-21T02:31:03;14.20;99.90
47658;DHT22;33958;48.404;10.598;2022-08-21T02:33:30;14.10;99.90
47658;DHT22;33958;48.404;10.598;2022-08-21T02:35:57;14.10;99.90
47658;DHT22;33958;48.404;10.598;2022-08-21T02:38:28;14.00;99.90
47658;DHT22;33958;48.404;10.598;2022-08-21T02:40:56;13.90;99.90
47658;DHT22;33958;48.404;10.598;2022-08-21T02:43:25;13.70;99.90
47658;DHT22;33958;48.404;10.598;2022-08-21T02:45:54;13.70;99.90
47658;DHT22;33958;48.404;10.598;2022-08-21T02:48:25;13.70;99.90
47658;DHT22;33958;48.404;10.598;2022-08-21T02:50:59;13.80;99.90
47658;DHT22;33958;48.404;10.598;2022-08-21T02:53:27;13.80;99.90
47658;DHT22;33958;48.404;10.598;2022-08-21T02:55:57;13.70;99.90
47658;DHT22;33958;48.404;10.598;2022-08-21T02:58:27;13.60;99.90
47658;DHT22;33958;48.404;10.598;2022-08-21T03:00:55;13.60;99.90
47658;DHT22;33958;48.404;10.598;2022-08-21T03:03:22;13.60;99.90
47658;DHT22;33958;48.404;10.598;2022-08-21T03:05:49;13.50;99.90
47658;DHT22;33958;48.404;10.598;2022-08-21T03:08:17;13.50;99.90
47658;DHT22;33958;48.404;10.598;2022-08-21T03:10:47;13.50;99.90
47658;DHT22;33958;48.404;10.598;2022-08-21T03:13:15;13.50;99.90
47658;DHT22;33958;48.404;10.598;2022-08-21T03:15:42;13.60;99.90
47658;DHT22;33958;48.404;10.598;2022-08-21T03:18:10;13.60;99.90
47658;DHT22;33958;48.404;10.598;2022-08-21T03:20:39;13.70;99.90
47658;DHT22;33958;48.404;10.598;2022-08-21T03:23:07;13.50;99.90
47658;DHT22;33958;48.404;10.598;2022-08-21T03:25:40;13.60;99.90
47658;DHT22;33958;48.404;10.598;2022-08-21T03:28:12;13.40;99.90
47658;DHT22;33958;48.404;10.598;2022-08-21T03:30:41;13.30;99.90
47658;DHT22;33958;48.404;10.598;2022-08-21T03:33:08;13.40;99.90
47658;DHT22;33958;48.404;10.598;2022-08-21T03:35:38;13.40;99.90
47658;DHT22;33958;48.404;10.598;2022-08-21T03:38:06;13.20;99.90
47658;DHT22;33958;48.404;10.598;2022-08-21T03:40:33;13.20;99.90
47658;DHT22;33958;48.404;10.598;2022-08-21T03:43:00;13.00;99.90
47658;DHT22;33958;48.404;10.598;2022-08-21T03:45:27;13.10;99.90
47658;DHT22;33958;48.404;10.598;2022-08-21T03:48:02;13.10;99.90
47658;DHT22;33958;48.404;10.598;2022-08-21T03:50:32;13.30;99.90
47658;DHT22;33958;48.404;10.598;2022-08-21T03:53:06;13.20;99.90
47658;DHT22;33958;48.404;10.598;2022-08-21T03:55:43;13.20;99.90
47658;DHT22;33958;48.404;10.598;2022-08-21T03:58:09;13.20;99.90
47658;DHT22;33958;48.404;10.598;2022-08-21T04:00:47;13.30;99.90
47658;DHT22;33958;48.404;10.598;2022-08-21T04:03:16;13.40;99.90
47658;DHT22;33958;48.404;10.598;2022-08-21T04:05:43;13.40;99.90
47658;DHT22;33958;48.404;10.598;2022-08-21T04:08:13;13.40;99.90
47658;DHT22;33958;48.404;10.598;2022-08-21T04:10:40;13.20;99.90
47658;DHT22;33958;48.404;10.598;2022-08-21T04:13:08;13.20;99.90
47658;DHT22;33958;48.404;10.598;2022-08-21T04:15:35;13.10;99.90
47658;DHT22;33958;48.404;10.598;2022-08-21T04:18:02;13.00;99.90
47658;DHT22;33958;48.404;10.598;2022-08-21T04:20:29;13.00;99.90
47658;DHT22;33958;48.404;10.598;2022-08-21T04:22:56;13.00;99.90
47658;DHT22;33958;48.404;10.598;2022-08-21T04:25:24;13.00;99.90
47658;DHT22;33958;48.404;10.598;2022-08-21T04:27:52;13.00;99.90
47658;DHT22;33958;48.404;10.598;2022-08-21T04:30:19;13.10;99.90
47658;DHT22;33958;48.404;10.598;2022-08-21T04:32:47;13.00;99.90
47658;DHT22;33958;48.404;10.598;2022-08-21T04:35:18;13.00;99.90
47658;DHT22;33958;48.404;10.598;2022-08-21T04:37:44;13.00;99.90
47658;DHT22;33958;48.404;10.598;2022-08-21T04:40:13;13.00;99.90
47658;DHT22;33958;48.404;10.598;2022-08-21T04:42:47;12.90;99.90
47658;DHT22;33958;48.404;10.598;2022-08-21T04:47:50;12.80;99.90
47658;DHT22;33958;48.404;10.598;2022-08-21T04:50:19;12.90;99.90
47658;DHT22;33958;48.404;10.598;2022-08-21T04:52:47;12.90;99.90
47658;DHT22;33958;48.404;10.598;2022-08-21T04:55:16;13.00;99.90
47658;DHT22;33958;48.404;10.598;2022-08-21T04:57:44;13.00;99.90
47658;DHT22;33958;48.404;10.598;2022-08-21T05:00:16;13.00;99.90
47658;DHT22;33958;48.404;10.598;2022-08-21T05:02:46;13.10;99.90
47658;DHT22;33958;48.404;10.598;2022-08-21T05:05:15;13.30;99.90
47658;DHT22;33958;48.404;10.598;2022-08-21T05:11:53;13.40;99.90
47658;DHT22;33958;48.404;10.598;2022-08-21T05:14:35;13.50;99.90
47658;DHT22;33958;48.404;10.598;2022-08-21T05:17:45;13.60;99.90
47658;DHT22;33958;48.404;10.598;2022-08-21T05:20:44;13.60;99.90
47658;DHT22;33958;48.404;10.598;2022-08-21T05:23:14;13.60;99.90
47658;DHT22;33958;48.404;10.598;2022-08-21T05:25:41;13.70;99.90
47658;DHT22;33958;48.404;10.598;2022-08-21T05:28:08;13.70;99.90
47658;DHT22;33958;48.404;10.598;2022-08-21T05:30:35;13.80;99.90
47658;DHT22;33958;48.404;10.598;2022-08-21T05:33:04;13.90;99.90
47658;DHT22;33958;48.404;10.598;2022-08-21T05:35:33;13.90;99.90
47658;DHT22;33958;48.404;10.598;2022-08-21T05:38:00;13.90;99.90
47658;DHT22;33958;48.404;10.598;2022-08-21T05:40:28;14.00;99.90
47658;DHT22;33958;48.404;10.598;2022-08-21T05:42:56;14.20;99.90
47658;DHT22;33958;48.404;10.598;2022-08-21T05:45:26;14.30;99.90
47658;DHT22;33958;48.404;10.598;2022-08-21T05:48:17;14.30;99.90
47658;DHT22;33958;48.404;10.598;2022-08-21T05:50:46;14.40;99.90
47658;DHT22;33958;48.404;10.598;2022-08-21T05:53:15;14.50;99.90
47658;DHT22;33958;48.404;10.598;2022-08-21T05:55:43;14.50;99.90
47658;DHT22;33958;48.404;10.598;2022-08-21T05:58:17;14.50;99.90
47658;DHT22;33958;48.404;10.598;2022-08-21T06:00:46;14.50;99.90
47658;DHT22;33958;48.404;10.598;2022-08-21T06:03:20;14.60;99.90
47658;DHT22;33958;48.404;10.598;2022-08-21T06:05:47;14.70;99.90
47658;DHT22;33958;48.404;10.598;2022-08-21T06:08:16;14.80;99.90
47658;DHT22;33958;48.404;10.598;2022-08-21T06:10:44;14.80;99.90
47658;DHT22;33958;48.404;10.598;2022-08-21T06:13:13;15.00;99.90
47658;DHT22;33958;48.404;10.598;2022-08-21T06:15:40;15.20;99.90
47658;DHT22;33958;48.404;10.598;2022-08-21T06:18:08;15.20;99.90
47658;DHT22;33958;48.404;10.598;2022-08-21T06:20:35;15.20;99.90
47658;DHT22;33958;48.404;10.598;2022-08-21T06:23:02;15.40;99.90
47658;DHT22;33958;48.404;10.598;2022-08-21T06:25:29;15.30;99.90
47658;DHT22;33958;48.404;10.598;2022-08-21T06:28:08;15.40;99.90
47658;DHT22;33958;48.404;10.598;2022-08-21T06:30:36;15.50;99.90
47658;DHT22;33958;48.404;10.598;2022-08-21T06:33:03;15.60;99.90
47658;DHT22;33958;48.404;10.598;2022-08-21T06:35:30;15.60;99.90
47658;DHT22;33958;48.404;10.598;2022-08-21T06:37:58;15.70;99.90
47658;DHT22;33958;48.404;10.598;2022-08-21T06:40:26;15.70;99.90
47658;DHT22;33958;48.404;10.598;2022-08-21T06:42:56;15.80;99.90
47658;DHT22;33958;48.404;10.598;2022-08-21T06:45:24;15.80;99.90
47658;DHT22;33958;48.404;10.598;2022-08-21T06:47:55;16.00;99.90
47658;DHT22;33958;48.404;10.598;2022-08-21T06:50:22;15.90;99.90
47658;DHT22;33958;48.404;10.598;2022-08-21T06:52:49;15.90;99.90
47658;DHT22;33958;48.404;10.598;2022-08-21T06:55:16;15.90;99.90
47658;DHT22;33958;48.404;10.598;2022-08-21T06:57:48;16.00;99.90
47658;DHT22;33958;48.404;10.598;2022-08-21T07:00:18;15.90;99.90
47658;DHT22;33958;48.404;10.598;2022-08-21T07:02:45;16.10;99.90
47658;DHT22;33958;48.404;10.598;2022-08-21T07:05:12;16.00;99.90
47658;DHT22;33958;48.404;10.598;2022-08-21T07:07:45;16.00;99.90
47658;DHT22;33958;48.404;10.598;2022-08-21T07:10:12;16.10;99.90
47658;DHT22;33958;48.404;10.598;2022-08-21T07:12:49;16.10;99.90
47658;DHT22;33958;48.404;10.598;2022-08-21T07:15:30;16.30;99.90
47658;DHT22;33958;48.404;10.598;2022-08-21T07:17:58;16.40;99.90
47658;DHT22;33958;48.404;10.598;2022-08-21T07:20:26;16.30;99.90
47658;DHT22;33958;48.404;10.598;2022-08-21T07:22:53;16.20;99.90
47658;DHT22;33958;48.404;10.598;2022-08-21T07:25:20;16.40;99.90
47658;DHT22;33958;48.404;10.598;2022-08-21T07:27:47;16.50;99.90
47658;DHT22;33958;48.404;10.598;2022-08-21T07:30:14;16.50;99.90
47658;DHT22;33958;48.404;10.598;2022-08-21T07:32:41;16.50;99.90
47658;DHT22;33958;48.404;10.598;2022-08-21T07:35:08;16.60;99.90
47658;DHT22;33958;48.404;10.598;2022-08-21T07:37:35;16.70;99.90
47658;DHT22;33958;48.404;10.598;2022-08-21T07:40:03;16.70;99.90
47658;DHT22;33958;48.404;10.598;2022-08-21T07:42:30;16.80;99.90
47658;DHT22;33958;48.404;10.598;2022-08-21T07:44:57;16.70;99.90
47658;DHT22;33958;48.404;10.598;2022-08-21T07:47:23;16.70;99.90
47658;DHT22;33958;48.404;10.598;2022-08-21T07:50:09;16.70;99.90
47658;DHT22;33958;48.404;10.598;2022-08-21T07:52:38;16.70;99.90
47658;DHT22;33958;48.404;10.598;2022-08-21T07:55:06;16.60;99.90
47658;DHT22;33958;48.404;10.598;2022-08-21T07:57:33;16.60;99.90
47658;DHT22;33958;48.404;10.598;2022-08-21T08:00:00;16.50;99.90
47658;DHT22;33958;48.404;10.598;2022-08-21T08:02:29;16.70;99.90
47658;DHT22;33958;48.404;10.598;2022-08-21T08:05:04;16.60;99.90
47658;DHT22;33958;48.404;10.598;2022-08-21T08:07:31;16.90;99.90
47658;DHT22;33958;48.404;10.598;2022-08-21T08:09:58;16.70;99.90
47658;DHT22;33958;48.404;10.598;2022-08-21T08:12:25;16.80;99.90
47658;DHT22;33958;48.404;10.598;2022-08-21T08:15:00;16.90;99.90
47658;DHT22;33958;48.404;10.598;2022-08-21T08:17:27;16.80;99.90
47658;DHT22;33958;48.404;10.598;2022-08-21T08:19:54;17.00;99.90
47658;DHT22;33958;48.404;10.598;2022-08-21T08:22:22;17.10;99.90
47658;DHT22;33958;48.404;10.598;2022-08-21T08:24:53;17.00;99.90
47658;DHT22;33958;48.404;10.598;2022-08-21T08:27:21;17.10;99.90
47658;DHT22;33958;48.404;10.598;2022-08-21T08:29:48;17.50;99.90
47658;DHT22;33958;48.404;10.598;2022-08-21T08:32:15;17.90;99.90
47658;DHT22;33958;48.404;10.598;2022-08-21T08:34:42;18.10;99.90
47658;DHT22;33958;48.404;10.598;2022-08-21T08:37:09;18.10;99.90
47658;DHT22;33958;48.404;10.598;2022-08-21T08:39:37;18.50;99.90
47658;DHT22;33958;48.404;10.598;2022-08-21T08:42:19;18.30;99.90
47658;DHT22;33958;48.404;10.598;2022-08-21T08:45:18;18.50;99.90
47658;DHT22;33958;48.404;10.598;2022-08-21T08:47:55;18.70;99.90
47658;DHT22;33958;48.404;10.598;2022-08-21T08:53:07;18.60;99.90
47658;DHT22;33958;48.404;10.598;2022-08-21T08:55:43;18.60;99.90
47658;DHT22;33958;48.404;10.598;2022-08-21T08:58:25;19.00;99.90
47658;DHT22;33958;48.404;10.598;2022-08-21T09:00:54;18.90;99.90
47658;DHT22;33958;48.404;10.598;2022-08-21T09:03:23;18.50;99.90
47658;DHT22;33958;48.404;10.598;2022-08-21T09:11:47;19.40;99.90
47658;DHT22;33958;48.404;10.598;2022-08-21T09:20:22;20.00;99.90
47658;DHT22;33958;48.404;10.598;2022-08-21T09:23:30;20.60;99.90
47658;DHT22;33958;48.404;10.598;2022-08-21T09:26:02;21.00;99.90
47658;DHT22;33958;48.404;10.598;2022-08-21T09:28:35;21.30;99.90
47658;DHT22;33958;48.404;10.598;2022-08-21T09:31:06;21.70;99.90
47658;DHT22;33958;48.404;10.598;2022-08-21T09:33:33;22.10;99.90
47658;DHT22;33958;48.404;10.598;2022-08-21T09:36:01;22.40;99.90
47658;DHT22;33958;48.404;10.598;2022-08-21T09:38:34;22.30;96.10
47658;DHT22;33958;48.404;10.598;2022-08-21T09:41:05;22.30;99.20
47658;DHT22;33958;48.404;10.598;2022-08-21T09:43:32;22.60;96.40
47658;DHT22;33958;48.404;10.598;2022-08-21T09:48:40;22.40;96.90
47658;DHT22;33958;48.404;10.598;2022-08-21T09:51:13;22.60;96.60
47658;DHT22;33958;48.404;10.598;2022-08-21T09:53:44;22.60;95.20
47658;DHT22;33958;48.404;10.598;2022-08-21T09:56:32;22.90;94.70
47658;DHT22;33958;48.404;10.598;2022-08-21T09:59:27;22.90;93.80
47658;DHT22;33958;48.404;10.598;2022-08-21T10:02:24;22.80;92.90
47658;DHT22;33958;48.404;10.598;2022-08-21T10:04:58;22.80;93.00
47658;DHT22;33958;48.404;10.598;2022-08-21T10:07:28;22.90;91.90
47658;DHT22;33958;48.404;10.598;2022-08-21T10:10:00;23.30;94.90
47658;DHT22;33958;48.404;10.598;2022-08-21T10:12:54;22.90;91.80
47658;DHT22;33958;48.404;10.598;2022-08-21T10:18:35;23.50;93.10
47658;DHT22;33958;48.404;10.598;2022-08-21T10:36:30;24.00;87.30
47658;DHT22;33958;48.404;10.598;2022-08-21T10:55:36;24.70;84.30
47658;DHT22;33958;48.404;10.598;2022-08-21T10:58:28;24.70;82.00
47658;DHT22;33958;48.404;10.598;2022-08-21T11:01:09;24.60;76.90
47658;DHT22;33958;48.404;10.598;2022-08-21T11:03:46;24.50;79.80
47658;DHT22;33958;48.404;10.598;2022-08-21T11:06:21;24.60;86.50
47658;DHT22;33958;48.404;10.598;2022-08-21T11:08:53;24.50;74.60
47658;DHT22;33958;48.404;10.598;2022-08-21T11:11:39;24.90;72.00
47658;DHT22;33958;48.404;10.598;2022-08-21T11:14:29;24.90;74.30
47658;DHT22;33958;48.404;10.598;2022-08-21T11:17:07;24.50;74.30
47658;DHT22;33958;48.404;10.598;2022-08-21T11:20:03;25.00;78.40
47658;DHT22;33958;48.404;10.598;2022-08-21T11:22:41;25.00;74.60
47658;DHT22;33958;48.404;10.598;2022-08-21T11:25:19;24.90;79.20
47658;DHT22;33958;48.404;10.598;2022-08-21T11:28:10;25.00;75.60
47658;DHT22;33958;48.404;10.598;2022-08-21T11:30:59;25.50;76.40
47658;DHT22;33958;48.404;10.598;2022-08-21T11:33:44;25.50;76.80
47658;DHT22;33958;48.404;10.598;2022-08-21T11:36:21;25.80;70.70
47658;DHT22;33958;48.404;10.598;2022-08-21T11:47:40;26.20;69.90
47658;DHT22;33958;48.404;10.598;2022-08-21T11:50:22;26.10;66.20
47658;DHT22;33958;48.404;10.598;2022-08-21T11:58:23;26.90;65.00
47658;DHT22;33958;48.404;10.598;2022-08-21T12:00:55;26.60;65.50
47658;DHT22;33958;48.404;10.598;2022-08-21T12:03:28;27.00;64.10
47658;DHT22;33958;48.404;10.598;2022-08-21T12:06:10;27.20;62.90
47658;DHT22;33958;48.404;10.598;2022-08-21T12:08:40;27.00;63.00
47658;DHT22;33958;48.404;10.598;2022-08-21T12:16:39;27.00;67.50
47658;DHT22;33958;48.404;10.598;2022-08-21T12:19:30;27.40;63.50
47658;DHT22;33958;48.404;10.598;2022-08-21T12:26:59;26.50;66.10
47658;DHT22;33958;48.404;10.598;2022-08-21T12:29:30;26.60;64.30
47658;DHT22;33958;48.404;10.598;2022-08-21T12:32:26;26.60;65.20
47658;DHT22;33958;48.404;10.598;2022-08-21T12:35:14;26.40;63.30
47658;DHT22;33958;48.404;10.598;2022-08-21T12:38:02;26.90;66.50
47658;DHT22;33958;48.404;10.598;2022-08-21T12:43:39;26.60;64.60
47658;DHT22;33958;48.404;10.598;2022-08-21T12:46:19;26.80;64.30
47658;DHT22;33958;48.404;10.598;2022-08-21T12:48:57;26.80;60.70
47658;DHT22;33958;48.404;10.598;2022-08-21T12:51:55;27.00;58.20
47658;DHT22;33958;48.404;10.598;2022-08-21T12:54:28;27.00;61.40
47658;DHT22;33958;48.404;10.598;2022-08-21T12:57:02;26.70;58.60
47658;DHT22;33958;48.404;10.598;2022-08-21T12:59:30;27.80;59.00
47658;DHT22;33958;48.404;10.598;2022-08-21T13:02:00;28.10;61.80
47658;DHT22;33958;48.404;10.598;2022-08-21T13:04:37;27.40;61.20
47658;DHT22;33958;48.404;10.598;2022-08-21T13:07:12;27.20;58.60
47658;DHT22;33958;48.404;10.598;2022-08-21T13:09:51;26.90;57.70
47658;DHT22;33958;48.404;10.598;2022-08-21T13:12:21;27.00;59.60
47658;DHT22;33958;48.404;10.598;2022-08-21T13:15:01;27.60;60.30
47658;DHT22;33958;48.404;10.598;2022-08-21T13:17:32;27.20;66.00
47658;DHT22;33958;48.404;10.598;2022-08-21T13:22:41;27.10;56.80
47658;DHT22;33958;48.404;10.598;2022-08-21T13:25:20;27.10;57.30
47658;DHT22;33958;48.404;10.598;2022-08-21T13:28:05;26.90;56.20
47658;DHT22;33958;48.404;10.598;2022-08-21T13:30:33;27.30;59.50
47658;DHT22;33958;48.404;10.598;2022-08-21T13:33:02;27.70;54.80
47658;DHT22;33958;48.404;10.598;2022-08-21T13:38:20;27.10;54.00
47658;DHT22;33958;48.404;10.598;2022-08-21T13:40:56;26.80;54.70
47658;DHT22;33958;48.404;10.598;2022-08-21T13:43:32;28.00;55.80
47658;DHT22;33958;48.404;10.598;2022-08-21T13:46:00;28.50;55.00
47658;DHT22;33958;48.404;10.598;2022-08-21T13:48:32;28.40;58.00
47658;DHT22;33958;48.404;10.598;2022-08-21T13:51:00;27.80;56.10
47658;DHT22;33958;48.404;10.598;2022-08-21T13:55:59;27.60;56.20
47658;DHT22;33958;48.404;10.598;2022-08-21T13:58:41;27.70;58.60
47658;DHT22;33958;48.404;10.598;2022-08-21T14:01:22;27.80;56.60
47658;DHT22;33958;48.404;10.598;2022-08-21T14:03:53;27.40;56.00
47658;DHT22;33958;48.404;10.598;2022-08-21T14:06:23;26.70;56.30
47658;DHT22;33958;48.404;10.598;2022-08-21T14:09:07;26.50;58.80
47658;DHT22;33958;48.404;10.598;2022-08-21T14:11:35;26.50;60.60
47658;DHT22;33958;48.404;10.598;2022-08-21T14:14:18;26.60;60.40
47658;DHT22;33958;48.404;10.598;2022-08-21T14:16:57;26.40;62.60
47658;DHT22;33958;48.404;10.598;2022-08-21T14:19:46;26.10;62.90
47658;DHT22;33958;48.404;10.598;2022-08-21T14:27:55;25.20;64.90
47658;DHT22;33958;48.404;10.598;2022-08-21T14:30:39;25.10;65.90
47658;DHT22;33958;48.404;10.598;2022-08-21T14:33:11;25.00;67.00
47658;DHT22;33958;48.404;10.598;2022-08-21T14:35:39;24.70;66.30
47658;DHT22;33958;48.404;10.598;2022-08-21T14:38:15;24.50;66.70
47658;DHT22;33958;48.404;10.598;2022-08-21T14:40:46;24.70;68.40
47658;DHT22;33958;48.404;10.598;2022-08-21T14:43:13;25.40;63.80
47658;DHT22;33958;48.404;10.598;2022-08-21T14:45:40;25.90;61.60
47658;DHT22;33958;48.404;10.598;2022-08-21T14:48:07;26.60;61.50
47658;DHT22;33958;48.404;10.598;2022-08-21T14:50:35;27.00;61.70
47658;DHT22;33958;48.404;10.598;2022-08-21T14:53:02;27.20;60.80
47658;DHT22;33958;48.404;10.598;2022-08-21T14:55:38;26.60;58.30
47658;DHT22;33958;48.404;10.598;2022-08-21T14:58:24;26.60;58.90
47658;DHT22;33958;48.404;10.598;2022-08-21T15:00:52;27.70;59.30
47658;DHT22;33958;48.404;10.598;2022-08-21T15:03:20;27.80;60.90
47658;DHT22;33958;48.404;10.598;2022-08-21T15:05:51;27.30;60.20
47658;DHT22;33958;48.404;10.598;2022-08-21T15:08:18;27.30;60.30
47658;DHT22;33958;48.404;10.598;2022-08-21T15:10:45;27.70;57.90
47658;DHT22;33958;48.404;10.598;2022-08-21T15:13:33;28.00;57.90
47658;DHT22;33958;48.404;10.598;2022-08-21T15:16:00;27.90;57.40
47658;DHT22;33958;48.404;10.598;2022-08-21T15:18:28;27.90;58.80
47658;DHT22;33958;48.404;10.598;2022-08-21T15:20:56;27.50;61.00
47658;DHT22;33958;48.404;10.598;2022-08-21T15:23:24;27.50;57.60
47658;DHT22;33958;48.404;10.598;2022-08-21T15:25:52;27.90;59.00
47658;DHT22;33958;48.404;10.598;2022-08-21T15:28:19;27.90;56.10
47658;DHT22;33958;48.404;10.598;2022-08-21T15:30:48;27.50;58.30
47658;DHT22;33958;48.404;10.598;2022-08-21T15:33:16;27.60;55.50
47658;DHT22;33958;48.404;10.598;2022-08-21T15:35:44;27.70;57.40
47658;DHT22;33958;48.404;10.598;2022-08-21T15:38:13;28.00;56.80
47658;DHT22;33958;48.404;10.598;2022-08-21T15:40:42;28.50;55.80
47658;DHT22;33958;48.404;10.598;2022-08-21T15:43:27;28.50;54.60
47658;DHT22;33958;48.404;10.598;2022-08-21T15:45:58;29.10;54.50
47658;DHT22;33958;48.404;10.598;2022-08-21T15:48:25;29.40;53.10
47658;DHT22;33958;48.404;10.598;2022-08-21T15:50:52;28.70;54.10
47658;DHT22;33958;48.404;10.598;2022-08-21T15:53:19;29.90;54.30
47658;DHT22;33958;48.404;10.598;2022-08-21T15:55:46;29.00;53.90
47658;DHT22;33958;48.404;10.598;2022-08-21T15:58:16;29.00;55.30
47658;DHT22;33958;48.404;10.598;2022-08-21T16:00:44;29.80;53.20
47658;DHT22;33958;48.404;10.598;2022-08-21T16:03:14;30.40;54.10
47658;DHT22;33958;48.404;10.598;2022-08-21T16:05:44;31.90;53.00
47658;DHT22;33958;48.404;10.598;2022-08-21T16:08:15;31.60;52.70
47658;DHT22;33958;48.404;10.598;2022-08-21T16:10:42;31.90;50.50
47658;DHT22;33958;48.404;10.598;2022-08-21T16:13:18;32.10;49.50
47658;DHT22;33958;48.404;10.598;2022-08-21T16:15:47;30.90;49.90
47658;DHT22;33958;48.404;10.598;2022-08-21T16:18:14;31.00;49.40
47658;DHT22;33958;48.404;10.598;2022-08-21T16:20:41;31.80;47.60
47658;DHT22;33958;48.404;10.598;2022-08-21T16:23:08;33.20;47.50
47658;DHT22;33958;48.404;10.598;2022-08-21T16:25:37;33.80;48.30
47658;DHT22;33958;48.404;10.598;2022-08-21T16:28:08;34.10;46.30
47658;DHT22;33958;48.404;10.598;2022-08-21T16:30:38;33.70;44.90
47658;DHT22;33958;48.404;10.598;2022-08-21T16:33:07;34.10;45.00
47658;DHT22;33958;48.404;10.598;2022-08-21T16:35:38;33.00;45.50
47658;DHT22;33958;48.404;10.598;2022-08-21T16:38:05;33.30;47.50
47658;DHT22;33958;48.404;10.598;2022-08-21T16:40:32;34.10;45.60
47658;DHT22;33958;48.404;10.598;2022-08-21T16:42:59;33.00;47.40
47658;DHT22;33958;48.404;10.598;2022-08-21T16:45:27;32.90;48.80
47658;DHT22;33958;48.404;10.598;2022-08-21T16:47:59;31.80;46.90
47658;DHT22;33958;48.404;10.598;2022-08-21T16:50:26;31.70;46.60
47658;DHT22;33958;48.404;10.598;2022-08-21T16:52:53;32.10;46.70
47658;DHT22;33958;48.404;10.598;2022-08-21T16:55:20;32.10;46.00
47658;DHT22;33958;48.404;10.598;2022-08-21T16:57:47;32.90;45.80
47658;DHT22;33958;48.404;10.598;2022-08-21T17:00:14;32.10;49.00
47658;DHT22;33958;48.404;10.598;2022-08-21T17:02:50;31.40;48.20
47658;DHT22;33958;48.404;10.598;2022-08-21T17:05:19;30.90;48.50
47658;DHT22;33958;48.404;10.598;2022-08-21T17:07:46;30.50;49.20
47658;DHT22;33958;48.404;10.598;2022-08-21T17:10:15;30.70;50.10
47658;DHT22;33958;48.404;10.598;2022-08-21T17:12:43;31.60;50.10
47658;DHT22;33958;48.404;10.598;2022-08-21T17:15:21;31.00;50.30
47658;DHT22;33958;48.404;10.598;2022-08-21T17:17:48;30.60;51.10
47658;DHT22;33958;48.404;10.598;2022-08-21T17:20:17;30.30;51.40
47658;DHT22;33958;48.404;10.598;2022-08-21T17:22:44;30.80;51.50